createdAt,value
2023-02-06T00:00:51.405Z,6.30
2023-02-06T00:03:19.992Z,6.63
2023-02-06T00:05:55.135Z,6.40
2023-02-06T00:08:21.984Z,7.40
2023-02-06T00:10:48.769Z,7.03
2023-02-06T00:13:15.428Z,9.23
2023-02-06T00:15:42.347Z,7.93
2023-02-06T00:18:09.266Z,7.13
2023-02-06T00:20:37.382Z,7.73
2023-02-06T00:23:04.423Z,6.87
2023-02-06T00:25:31.328Z,8.83
2023-02-06T00:27:58.142Z,7.17
2023-02-06T00:30:24.805Z,9.47
2023-02-06T00:32:51.543Z,7.73
2023-02-06T00:35:18.575Z,8.80
2023-02-06T00:37:45.204Z,7.93
2023-02-06T00:40:12.232Z,9.37
2023-02-06T00:42:39.068Z,10.73
2023-02-06T00:45:06.444Z,11.73
2023-02-06T00:47:33.808Z,11.10
2023-02-06T00:50:01.144Z,8.53
2023-02-06T00:52:27.890Z,9.57
2023-02-06T00:54:54.671Z,10.57
2023-02-06T00:57:24.092Z,11.20
2023-02-06T00:59:51.086Z,10.93
2023-02-06T01:02:17.738Z,10.30
2023-02-06T01:04:44.384Z,8.67
2023-02-06T01:07:11.129Z,10.03
2023-02-06T01:09:37.809Z,10.80
2023-02-06T01:12:04.684Z,14.37
2023-02-06T01:14:31.378Z,10.93
2023-02-06T01:16:58.083Z,7.63
2023-02-06T01:19:24.731Z,10.17
2023-02-06T01:21:51.465Z,9.43
2023-02-06T01:24:18.172Z,9.57
2023-02-06T01:26:44.878Z,9.30
2023-02-06T01:29:11.530Z,9.53
2023-02-06T01:31:38.322Z,13.20
2023-02-06T01:34:07.138Z,11.10
2023-02-06T01:36:33.873Z,8.13
2023-02-06T01:39:00.568Z,7.93
2023-02-06T01:41:27.313Z,7.70
2023-02-06T01:44:26.675Z,9.90
2023-02-06T01:46:56.814Z,9.63
2023-02-06T01:49:33.969Z,11.67
2023-02-06T01:52:16.105Z,10.43
2023-02-06T01:54:44.331Z,9.40
2023-02-06T01:57:11.821Z,11.13
2023-02-06T01:59:44.944Z,9.87
2023-02-06T02:02:12.902Z,9.88
2023-02-06T02:04:39.641Z,11.83
2023-02-06T02:07:26.328Z,8.93
2023-02-06T02:09:53.595Z,9.80
2023-02-06T02:12:20.517Z,9.63
2023-02-06T02:14:49.483Z,8.87
2023-02-06T02:17:37.418Z,9.67
2023-02-06T02:20:38.097Z,11.73
2023-02-06T02:23:12.017Z,9.97
2023-02-06T02:28:44.832Z,9.75
2023-02-06T02:31:30.589Z,10.90
2023-02-06T02:34:06.546Z,11.10
2023-02-06T02:36:51.870Z,10.83
2023-02-06T02:39:52.576Z,7.83
2023-02-06T02:42:41.108Z,12.10
2023-02-06T02:45:16.262Z,11.57
2023-02-06T02:47:55.922Z,9.23
2023-02-06T02:50:23.147Z,10.03
2023-02-06T02:52:50.091Z,11.07
2023-02-06T02:55:21.458Z,9.70
2023-02-06T02:57:52.896Z,10.87
2023-02-06T03:00:21.170Z,9.77
2023-02-06T03:02:50.505Z,12.20
2023-02-06T03:05:22.009Z,8.53
2023-02-06T03:07:54.854Z,8.87
2023-02-06T03:10:24.284Z,11.00
2023-02-06T03:13:19.995Z,11.03
2023-02-06T03:16:11.937Z,9.87
2023-02-06T03:18:55.627Z,9.17
2023-02-06T03:21:23.854Z,8.80
2023-02-06T03:23:54.708Z,10.27
2023-02-06T03:26:24.597Z,11.53
2023-02-06T03:28:59.023Z,10.47
2023-02-06T03:31:43.025Z,11.37
2023-02-06T03:34:20.444Z,8.95
2023-02-06T03:36:47.759Z,13.30
2023-02-06T03:39:14.582Z,10.93
2023-02-06T03:41:43.501Z,12.03
2023-02-06T03:44:15.136Z,14.23
2023-02-06T03:46:43.864Z,11.50
2023-02-06T03:49:15.640Z,14.57
2023-02-06T03:51:56.083Z,12.67
2023-02-06T03:54:26.093Z,11.33
2023-02-06T03:57:02.781Z,10.10
2023-02-06T03:59:31.031Z,9.87
2023-02-06T04:02:00.613Z,11.43
2023-02-06T04:04:45.841Z,13.17
2023-02-06T04:07:22.713Z,12.90
2023-02-06T04:09:49.694Z,12.50
2023-02-06T04:12:16.725Z,12.70
2023-02-06T04:14:43.761Z,11.67
2023-02-06T04:17:11.272Z,15.07
2023-02-06T04:19:38.803Z,14.70
2023-02-06T04:22:06.839Z,15.80
2023-02-06T04:24:33.578Z,14.90
2023-02-06T04:27:00.284Z,11.53
2023-02-06T04:29:26.983Z,15.07
2023-02-06T04:31:53.760Z,13.73
2023-02-06T04:34:20.517Z,13.53
2023-02-06T04:36:47.195Z,13.97
2023-02-06T04:39:13.927Z,12.53
2023-02-06T04:41:40.659Z,14.73
2023-02-06T04:44:07.345Z,19.00
2023-02-06T04:46:34.054Z,14.67
2023-02-06T04:49:00.841Z,10.83
2023-02-06T04:51:27.587Z,14.20
2023-02-06T04:53:54.236Z,15.57
2023-02-06T04:56:20.966Z,16.40
2023-02-06T04:58:47.681Z,14.17
2023-02-06T05:01:16.858Z,11.77
2023-02-06T05:03:43.928Z,13.03
2023-02-06T05:06:10.752Z,12.67
2023-02-06T05:08:38.317Z,13.77
2023-02-06T05:11:05.647Z,14.57
2023-02-06T05:13:33.855Z,15.30
2023-02-06T05:16:06.994Z,15.17
2023-02-06T05:18:33.888Z,15.90
2023-02-06T05:21:00.682Z,13.70
2023-02-06T05:23:27.453Z,13.77
2023-02-06T05:25:54.194Z,13.83
2023-02-06T05:28:20.955Z,15.20
2023-02-06T05:30:48.037Z,11.73
2023-02-06T05:33:14.847Z,13.43
2023-02-06T05:35:42.818Z,13.87
2023-02-06T05:38:09.564Z,13.93
2023-02-06T05:40:36.324Z,12.70
2023-02-06T05:43:03.404Z,15.03
2023-02-06T05:45:30.217Z,17.33
2023-02-06T05:47:57.137Z,29.30
2023-02-06T05:50:23.811Z,28.83
2023-02-06T05:52:50.502Z,25.17
2023-02-06T05:55:18.324Z,21.90
2023-02-06T05:57:45.224Z,20.97
2023-02-06T06:00:13.206Z,18.67
2023-02-06T06:02:39.943Z,19.50
2023-02-06T06:05:07.143Z,16.97
2023-02-06T06:07:33.899Z,13.20
2023-02-06T06:10:01.120Z,14.10
2023-02-06T06:12:27.875Z,18.73
2023-02-06T06:14:54.542Z,14.33
2023-02-06T06:17:21.568Z,18.43
2023-02-06T06:19:48.255Z,17.40
2023-02-06T06:22:14.930Z,16.50
2023-02-06T06:24:41.674Z,15.57
2023-02-06T06:27:10.657Z,18.00
2023-02-06T06:29:37.709Z,15.60
2023-02-06T06:32:05.368Z,16.87
2023-02-06T06:34:32.104Z,12.77
2023-02-06T06:36:58.866Z,13.53
2023-02-06T06:39:25.634Z,18.03
2023-02-06T06:41:52.371Z,19.07
2023-02-06T06:44:19.039Z,16.00
2023-02-06T06:46:45.930Z,15.77
2023-02-06T06:49:12.768Z,16.67
2023-02-06T06:51:39.451Z,15.10
2023-02-06T06:54:06.343Z,14.77
2023-02-06T06:56:33.294Z,19.70
2023-02-06T06:58:59.963Z,17.37
2023-02-06T07:01:26.766Z,16.67
2023-02-06T07:03:53.543Z,16.63
2023-02-06T07:06:20.254Z,14.57
2023-02-06T07:08:46.887Z,18.50
2023-02-06T07:11:14.916Z,14.97
2023-02-06T07:13:42.163Z,22.03
2023-02-06T07:16:09.572Z,17.33
2023-02-06T07:18:38.389Z,15.27
2023-02-06T07:21:05.608Z,15.70
2023-02-06T07:23:32.294Z,15.60
2023-02-06T07:26:02.381Z,19.43
2023-02-06T07:28:31.160Z,16.63
2023-02-06T07:31:06.658Z,16.37
2023-02-06T07:33:34.014Z,17.27
2023-02-06T07:36:03.813Z,16.57
2023-02-06T07:38:31.103Z,19.03
2023-02-06T07:41:01.824Z,23.77
2023-02-06T07:43:29.170Z,15.87
2023-02-06T07:46:00.238Z,18.83
2023-02-06T07:48:27.776Z,18.37
2023-02-06T07:50:54.586Z,16.33
2023-02-06T07:53:21.495Z,14.17
2023-02-06T07:55:48.399Z,16.33
2023-02-06T07:58:15.147Z,17.17
2023-02-06T08:00:42.141Z,16.97
2023-02-06T08:03:10.011Z,18.57
2023-02-06T08:05:39.368Z,18.10
2023-02-06T08:08:07.036Z,17.43
2023-02-06T08:10:33.705Z,16.57
2023-02-06T08:13:00.537Z,17.27
2023-02-06T08:15:27.264Z,16.40
2023-02-06T08:17:53.976Z,17.02
2023-02-06T08:20:20.776Z,14.90
2023-02-06T08:22:47.502Z,18.53
2023-02-06T08:25:14.469Z,23.58
2023-02-06T08:27:41.282Z,14.73
2023-02-06T08:30:08.522Z,14.27
2023-02-06T08:32:35.624Z,13.02
2023-02-06T08:35:02.413Z,14.00
2023-02-06T08:37:29.119Z,11.60
2023-02-06T08:39:55.764Z,15.93
2023-02-06T08:42:22.594Z,18.63
2023-02-06T08:44:49.340Z,13.98
2023-02-06T08:47:16.858Z,16.85
2023-02-06T08:49:43.569Z,15.60
2023-02-06T08:52:10.386Z,14.52
2023-02-06T08:54:38.791Z,13.57
2023-02-06T08:57:06.662Z,15.20
2023-02-06T08:59:34.228Z,19.60
2023-02-06T09:02:01.687Z,15.98
2023-02-06T09:04:37.263Z,13.60
2023-02-06T09:07:04.005Z,14.00
2023-02-06T09:09:30.762Z,15.13
2023-02-06T09:12:02.202Z,14.25
2023-02-06T09:14:29.369Z,16.80
2023-02-06T09:16:59.502Z,15.20
2023-02-06T09:19:26.598Z,15.43
2023-02-06T09:21:53.494Z,15.50
2023-02-06T09:24:20.706Z,14.25
2023-02-06T09:26:59.446Z,17.23
2023-02-06T09:29:29.403Z,16.02
2023-02-06T09:31:57.505Z,15.90
2023-02-06T09:34:25.886Z,14.57
2023-02-06T09:36:56.870Z,16.55
2023-02-06T09:39:24.702Z,14.65
2023-02-06T09:41:55.186Z,18.20
2023-02-06T09:44:27.548Z,18.98
2023-02-06T09:47:27.567Z,16.30
2023-02-06T09:49:58.775Z,22.38
2023-02-06T09:53:02.970Z,57.95
2023-02-06T09:55:42.700Z,25.48
2023-02-06T09:58:39.591Z,37.15
2023-02-06T10:01:12.061Z,22.83
2023-02-06T10:04:12.991Z,21.20
2023-02-06T10:06:42.784Z,22.27
2023-02-06T10:09:25.714Z,19.73
2023-02-06T10:12:16.497Z,18.27
2023-02-06T10:15:03.443Z,17.52
2023-02-06T10:17:50.005Z,17.17
2023-02-06T10:20:31.405Z,17.58
2023-02-06T10:23:32.425Z,18.92
2023-02-06T10:26:04.998Z,15.48
2023-02-06T10:28:35.237Z,18.75
2023-02-06T10:31:19.625Z,20.00
2023-02-06T10:36:43.405Z,17.00
2023-02-06T10:39:26.498Z,18.10
2023-02-06T10:42:00.531Z,20.63
2023-02-06T10:44:52.932Z,19.27
2023-02-06T10:47:55.007Z,16.50
2023-02-06T10:50:29.889Z,19.65
2023-02-06T10:53:00.081Z,17.42
2023-02-06T10:55:32.986Z,17.42
2023-02-06T11:00:31.514Z,18.75
2023-02-06T11:03:08.202Z,16.83
2023-02-06T11:05:36.383Z,16.65
2023-02-06T11:08:09.788Z,21.15
2023-02-06T11:10:37.682Z,17.55
2023-02-06T11:13:15.457Z,18.73
2023-02-06T11:16:08.285Z,24.35
2023-02-06T11:18:39.043Z,19.15
2023-02-06T11:21:08.640Z,19.73
2023-02-06T11:23:35.974Z,20.83
2023-02-06T11:26:16.861Z,17.17
2023-02-06T11:28:49.372Z,19.73
2023-02-06T11:31:20.229Z,18.05
2023-02-06T11:33:51.291Z,19.27
2023-02-06T11:36:34.681Z,20.33
2023-02-06T11:39:23.772Z,18.00
2023-02-06T11:42:02.460Z,15.07
2023-02-06T11:44:36.534Z,16.85
2023-02-06T11:47:31.199Z,17.90
2023-02-06T11:50:36.626Z,13.25
2023-02-06T11:53:16.778Z,16.00
2023-02-06T11:55:45.439Z,17.23
2023-02-06T11:58:21.449Z,19.40
2023-02-06T12:00:51.170Z,12.93
2023-02-06T12:03:35.426Z,20.70
2023-02-06T12:06:13.078Z,44.88
2023-02-06T12:08:45.978Z,22.13
2023-02-06T12:11:38.202Z,17.48
2023-02-06T12:14:24.436Z,14.73
2023-02-06T12:16:52.660Z,17.58
2023-02-06T12:19:24.483Z,14.45
2023-02-06T12:21:56.186Z,14.75
2023-02-06T12:24:34.966Z,21.17
2023-02-06T12:27:13.029Z,16.48
2023-02-06T12:29:56.931Z,16.67
2023-02-06T12:32:38.152Z,16.65
2023-02-06T12:35:40.124Z,14.52
2023-02-06T12:38:30.462Z,16.27
2023-02-06T12:41:19.651Z,16.17
2023-02-06T12:43:53.520Z,17.15
2023-02-06T12:46:23.842Z,15.73
2023-02-06T12:49:01.074Z,25.75
2023-02-06T12:51:36.192Z,18.58
2023-02-06T12:54:21.340Z,24.70
2023-02-06T12:56:54.530Z,17.23
2023-02-06T12:59:57.592Z,15.07
2023-02-06T13:02:36.968Z,14.85
2023-02-06T13:05:35.381Z,14.63
2023-02-06T13:08:14.054Z,14.63
2023-02-06T13:10:41.397Z,16.23
2023-02-06T13:13:26.055Z,13.30
2023-02-06T13:15:55.109Z,14.00
2023-02-06T13:18:52.615Z,13.73
2023-02-06T13:21:28.784Z,13.95
2023-02-06T13:24:16.939Z,15.05
2023-02-06T13:26:47.872Z,15.00
2023-02-06T13:29:25.335Z,14.98
2023-02-06T13:32:18.496Z,48.88
2023-02-06T13:34:51.166Z,17.85
2023-02-06T13:37:38.615Z,16.52
2023-02-06T13:40:23.690Z,17.95
2023-02-06T13:43:13.641Z,15.70
2023-02-06T13:46:07.618Z,11.73
2023-02-06T13:48:44.987Z,10.45
2023-02-06T13:51:31.787Z,13.68
2023-02-06T13:54:36.370Z,11.55
2023-02-06T13:57:27.366Z,12.07
2023-02-06T14:00:13.510Z,13.77
2023-02-06T14:02:44.260Z,15.15
2023-02-06T14:05:35.534Z,15.48
2023-02-06T14:08:20.592Z,16.52
2023-02-06T14:10:56.104Z,14.00
2023-02-06T14:13:41.106Z,18.50
2023-02-06T14:16:44.400Z,13.75
2023-02-06T14:19:31.407Z,19.27
2023-02-06T14:22:13.791Z,21.60
2023-02-06T14:25:04.114Z,22.33
2023-02-06T14:27:53.004Z,17.05
2023-02-06T14:30:37.670Z,21.40
2023-02-06T14:33:31.500Z,18.23
2023-02-06T14:36:16.359Z,37.08
2023-02-06T14:38:59.048Z,57.00
2023-02-06T14:41:30.745Z,24.45
2023-02-06T14:43:58.866Z,16.77
2023-02-06T14:46:27.415Z,19.35
2023-02-06T14:48:58.175Z,21.88
2023-02-06T14:51:36.500Z,19.73
2023-02-06T14:54:27.071Z,18.30
2023-02-06T14:57:03.758Z,17.67
2023-02-06T14:59:31.114Z,19.67
2023-02-06T15:01:59.595Z,19.48
2023-02-06T15:04:30.516Z,17.83
2023-02-06T15:07:02.909Z,18.70
2023-02-06T15:09:31.053Z,15.90
2023-02-06T15:12:00.387Z,16.52
2023-02-06T15:14:33.172Z,18.90
2023-02-06T15:17:02.527Z,25.88
2023-02-06T15:19:32.018Z,32.80
2023-02-06T15:22:11.390Z,21.20
2023-02-06T15:25:15.351Z,18.92
2023-02-06T15:27:42.241Z,18.67
2023-02-06T15:30:25.789Z,19.50
2023-02-06T15:32:54.545Z,19.92
2023-02-06T15:35:36.095Z,15.75
2023-02-06T15:38:22.754Z,17.42
2023-02-06T15:40:53.480Z,16.67
2023-02-06T15:43:25.361Z,16.02
2023-02-06T15:45:58.611Z,13.93
2023-02-06T15:48:48.900Z,14.17
2023-02-06T15:51:26.480Z,18.02
2023-02-06T15:54:07.758Z,17.92
2023-02-06T15:56:40.086Z,16.42
2023-02-06T15:59:24.204Z,16.35
2023-02-06T16:01:54.293Z,18.35
2023-02-06T16:04:27.807Z,17.30
2023-02-06T16:07:05.764Z,16.85
2023-02-06T16:09:41.721Z,13.40
2023-02-06T16:12:08.948Z,15.32
2023-02-06T16:14:37.103Z,17.08
2023-02-06T16:17:09.547Z,13.73
2023-02-06T16:20:05.214Z,15.52
2023-02-06T16:22:38.321Z,14.98
2023-02-06T16:25:25.811Z,14.70
2023-02-06T16:27:53.077Z,17.98
2023-02-06T16:30:28.316Z,16.83
2023-02-06T16:32:56.858Z,17.50
2023-02-06T16:35:24.030Z,14.05
2023-02-06T16:37:52.986Z,16.50
2023-02-06T16:40:20.259Z,16.65
2023-02-06T16:42:47.654Z,22.88
2023-02-06T16:45:21.295Z,19.05
2023-02-06T16:47:48.405Z,18.80
2023-02-06T16:50:15.886Z,17.88
2023-02-06T16:52:48.517Z,18.67
2023-02-06T16:55:22.066Z,22.75
2023-02-06T16:57:52.818Z,27.00
2023-02-06T17:00:23.517Z,27.85
2023-02-06T17:02:54.058Z,24.10
2023-02-06T17:05:23.407Z,26.80
2023-02-06T17:07:50.802Z,28.33
2023-02-06T17:10:21.261Z,24.42
2023-02-06T17:12:48.928Z,18.95
2023-02-06T17:15:17.755Z,18.25
2023-02-06T17:17:44.783Z,18.63
2023-02-06T17:20:34.018Z,17.47
2023-02-06T17:23:00.795Z,18.38
2023-02-06T17:25:27.620Z,18.13
2023-02-06T17:27:54.741Z,17.17
2023-02-06T17:30:23.549Z,20.17
2023-02-06T17:32:50.490Z,14.88
2023-02-06T17:35:18.907Z,15.90
2023-02-06T17:37:45.624Z,16.10
2023-02-06T17:40:19.483Z,17.33
2023-02-06T17:42:46.304Z,15.95
2023-02-06T17:45:13.095Z,15.30
2023-02-06T17:47:39.876Z,17.27
2023-02-06T17:50:07.319Z,12.73
2023-02-06T17:52:34.039Z,15.63
2023-02-06T17:55:00.692Z,20.17
2023-02-06T17:57:27.572Z,19.07
2023-02-06T17:59:54.316Z,20.63
2023-02-06T18:02:20.995Z,18.60
2023-02-06T18:04:51.098Z,17.60
2023-02-06T18:07:17.823Z,17.80
2023-02-06T18:09:44.602Z,22.03
2023-02-06T18:12:11.324Z,17.97
2023-02-06T18:14:39.594Z,20.87
2023-02-06T18:17:07.801Z,17.20
2023-02-06T18:19:42.496Z,16.17
2023-02-06T18:22:10.925Z,22.10
2023-02-06T18:24:37.625Z,20.23
2023-02-06T18:27:05.607Z,23.07
2023-02-06T18:29:48.503Z,19.80
2023-02-06T18:32:16.003Z,24.40
2023-02-06T18:34:42.787Z,22.43
2023-02-06T18:37:09.906Z,21.27
2023-02-06T18:39:37.720Z,26.40
2023-02-06T18:42:23.326Z,25.33
2023-02-06T18:44:50.075Z,23.40
2023-02-06T18:47:18.743Z,23.40
2023-02-06T18:49:45.883Z,28.80
2023-02-06T18:52:12.726Z,28.50
2023-02-06T18:54:39.535Z,22.10
2023-02-06T18:57:06.621Z,22.00
2023-02-06T18:59:33.634Z,23.03
2023-02-06T19:02:00.321Z,23.30
2023-02-06T19:04:27.204Z,28.27
2023-02-06T19:06:53.907Z,21.53
2023-02-06T19:09:20.725Z,17.70
2023-02-06T19:11:48.362Z,23.53
2023-02-06T19:14:17.023Z,22.63
2023-02-06T19:16:47.296Z,24.47
2023-02-06T19:19:14.617Z,20.77
2023-02-06T19:21:41.684Z,27.50
2023-02-06T19:24:11.024Z,21.20
2023-02-06T19:26:37.738Z,21.03
2023-02-06T19:29:04.586Z,25.37
2023-02-06T19:31:32.248Z,27.43
2023-02-06T19:34:02.173Z,22.47
2023-02-06T19:36:30.051Z,20.13
2023-02-06T19:39:02.900Z,21.40
2023-02-06T19:41:31.787Z,20.60
2023-02-06T19:44:02.188Z,22.17
2023-02-06T19:46:29.228Z,21.73
2023-02-06T19:48:56.301Z,26.23
2023-02-06T19:51:30.206Z,24.50
2023-02-06T19:53:58.214Z,23.60
2023-02-06T19:56:39.623Z,23.03
2023-02-06T19:59:19.159Z,23.10
2023-02-06T20:01:51.317Z,31.33
2023-02-06T20:04:20.215Z,27.77
2023-02-06T20:06:47.622Z,32.97
2023-02-06T20:09:15.572Z,31.23
2023-02-06T20:11:43.144Z,29.80
2023-02-06T20:14:10.856Z,26.67
2023-02-06T20:16:39.552Z,22.63
2023-02-06T20:19:09.304Z,25.20
2023-02-06T20:21:39.377Z,23.43
2023-02-06T20:24:08.517Z,23.07
2023-02-06T20:26:38.223Z,31.07
2023-02-06T20:29:06.419Z,29.37
2023-02-06T20:31:36.821Z,25.47
2023-02-06T20:34:03.753Z,25.90
2023-02-06T20:36:31.102Z,34.03
2023-02-06T20:38:59.833Z,36.03
2023-02-06T20:41:29.936Z,28.47
2023-02-06T20:43:58.155Z,28.47
2023-02-06T20:46:25.862Z,28.07
2023-02-06T20:48:56.128Z,25.67
2023-02-06T20:51:23.256Z,26.10
2023-02-06T20:53:50.370Z,30.13
2023-02-06T20:56:18.133Z,29.03
2023-02-06T20:58:45.128Z,31.67
2023-02-06T21:01:23.824Z,29.90
2023-02-06T21:03:53.970Z,29.57
2023-02-06T21:06:21.029Z,32.67
2023-02-06T21:08:50.147Z,30.37
2023-02-06T21:11:17.532Z,30.23
2023-02-06T21:13:44.450Z,26.97
2023-02-06T21:16:13.534Z,26.30
2023-02-06T21:18:42.456Z,27.73
2023-02-06T21:21:13.176Z,32.77
2023-02-06T21:23:41.513Z,30.07
2023-02-06T21:26:10.953Z,32.77
2023-02-06T21:28:39.058Z,33.80
2023-02-06T21:31:09.005Z,32.10
2023-02-06T21:33:36.584Z,35.20
2023-02-06T21:36:06.665Z,32.33
2023-02-06T21:38:37.002Z,32.33
2023-02-06T21:41:16.227Z,36.50
2023-02-06T21:43:43.195Z,34.17
2023-02-06T21:46:11.003Z,35.17
2023-02-06T21:48:38.685Z,34.50
2023-02-06T21:51:12.490Z,44.87
2023-02-06T21:53:39.809Z,37.92
2023-02-06T21:56:08.408Z,35.20
2023-02-06T21:58:36.456Z,36.83
2023-02-06T22:01:08.682Z,31.53
2023-02-06T22:03:35.994Z,40.67
2023-02-06T22:06:08.777Z,33.47
2023-02-06T22:08:40.965Z,34.53
2023-02-06T22:11:28.530Z,30.73
2023-02-06T22:14:00.315Z,27.10
2023-02-06T22:16:28.007Z,31.33
2023-02-06T22:18:55.448Z,27.87
2023-02-06T22:21:24.846Z,26.93
2023-02-06T22:23:52.367Z,29.90
2023-02-06T22:26:21.404Z,31.93
2023-02-06T22:28:48.876Z,36.13
2023-02-06T22:31:24.341Z,28.60
2023-02-06T22:33:51.704Z,32.33
2023-02-06T22:36:23.810Z,26.40
2023-02-06T22:39:02.030Z,25.97
2023-02-06T22:41:29.552Z,24.80
2023-02-06T22:43:56.765Z,23.40
2023-02-06T22:46:29.931Z,26.53
2023-02-06T22:48:57.146Z,23.08
2023-02-06T22:51:24.288Z,25.30
2023-02-06T22:53:51.959Z,22.80
2023-02-06T22:56:36.608Z,23.77
2023-02-06T22:59:06.400Z,19.13
2023-02-06T23:01:57.700Z,22.17
2023-02-06T23:04:30.891Z,23.30
2023-02-06T23:06:57.710Z,25.08
2023-02-06T23:09:36.878Z,26.57
2023-02-06T23:12:04.420Z,31.40
2023-02-06T23:14:32.714Z,33.63
2023-02-06T23:17:00.634Z,50.10
2023-02-06T23:19:28.021Z,54.33
2023-02-06T23:21:55.109Z,62.00
2023-02-06T23:24:21.846Z,58.33
2023-02-06T23:26:50.286Z,42.37
2023-02-06T23:29:18.746Z,37.07
2023-02-06T23:31:47.082Z,45.40
2023-02-06T23:34:14.583Z,41.50
2023-02-06T23:36:41.949Z,49.73
2023-02-06T23:39:08.676Z,46.57
2023-02-06T23:41:35.369Z,42.53
2023-02-06T23:44:05.431Z,43.77
2023-02-06T23:46:34.564Z,52.23
2023-02-06T23:49:01.298Z,54.03
2023-02-06T23:51:28.435Z,41.53
2023-02-06T23:53:55.253Z,41.80
2023-02-06T23:56:24.967Z,38.67
2023-02-06T23:58:52.930Z,43.00
